Time;durP1;ratioP1;P1;durP2;ratioP2;P2;SDS_P1;SDS_P2;PMS_P1;PMS_P2;Temp;Humidity;BMP_temperature;BMP_pressure;BME280_temperature;BME280_humidity;BME280_pressure;Samples;Min_cycle;Max_cycle;Signal;HPM_P1;HPM_P2
2021/11/10 00:01:51;;;;;;;1999.90;999.90;;;0.40;99.90;;;;;;5114114;28;20386;-80
2021/11/10 00:04:19;;;;;;;1999.90;999.90;;;0.40;99.90;;;;;;5113998;28;20049;-80
2021/11/10 00:06:45;;;;;;;1999.90;999.90;;;0.40;99.90;;;;;;5113984;28;20023;-79
2021/11/10 00:09:11;;;;;;;1999.90;999.90;;;0.30;99.90;;;;;;5115323;28;20429;-81
2021/11/10 00:11:37;;;;;;;1999.90;999.90;;;0.40;99.90;;;;;;5113927;28;20028;-80
2021/11/10 00:14:03;;;;;;;1999.90;999.90;;;0.40;99.90;;;;;;5113859;28;20383;-79
2021/11/10 00:16:30;;;;;;;1999.90;999.90;;;0.40;99.90;;;;;;5113993;28;20023;-79
2021/11/10 00:18:56;;;;;;;1999.90;999.90;;;0.30;99.90;;;;;;5113610;28;20118;-82
2021/11/10 00:21:23;;;;;;;1999.90;999.90;;;0.30;99.90;;;;;;5113729;28;20024;-81
2021/11/10 00:23:49;;;;;;;1999.90;999.90;;;0.40;99.90;;;;;;5113742;28;20027;-79
2021/11/10 00:26:15;;;;;;;1999.90;999.90;;;0.20;99.90;;;;;;5113593;28;20019;-79
2021/11/10 00:28:41;;;;;;;1999.90;999.90;;;0.10;99.90;;;;;;5113275;28;20024;-79
2021/11/10 00:31:07;;;;;;;1999.90;999.90;;;0.10;99.90;;;;;;5113657;28;20114;-86
2021/11/10 00:33:33;;;;;;;1999.90;999.90;;;0.10;99.90;;;;;;5113388;28;20084;-80
2021/11/10 00:35:58;;;;;;;1999.90;999.90;;;0.20;99.90;;;;;;5114731;28;20027;-80
2021/11/10 00:38:24;;;;;;;1999.90;999.90;;;0.10;99.90;;;;;;5113321;28;20568;-79
2021/11/10 00:40:50;;;;;;;1999.90;999.90;;;0.20;99.90;;;;;;5112986;28;20030;-80
2021/11/10 00:43:16;;;;;;;1999.90;999.90;;;0.10;99.90;;;;;;5113371;28;20126;-80
2021/11/10 00:45:41;;;;;;;1999.90;999.90;;;0.10;99.90;;;;;;5113477;28;20080;-81
2021/11/10 00:48:10;;;;;;;1999.90;999.90;;;0.10;99.90;;;;;;5115439;28;20020;-82
2021/11/10 00:50:36;;;;;;;1999.90;999.90;;;0.10;99.90;;;;;;5122379;28;20062;-83
2021/11/10 00:53:03;;;;;;;1999.90;999.90;;;0.10;99.90;;;;;;5115378;28;20092;-80
2021/11/10 00:55:29;;;;;;;1999.90;999.90;;;0.10;99.90;;;;;;5113254;28;20020;-79
2021/11/10 00:57:55;;;;;;;1999.90;999.90;;;0.00;99.90;;;;;;5112990;28;20032;-80
2021/11/10 01:00:22;;;;;;;1999.90;999.90;;;0.00;99.90;;;;;;5112817;28;20418;-79
2021/11/10 01:02:48;;;;;;;1999.90;999.90;;;0.00;99.90;;;;;;5112999;28;20052;-80
2021/11/10 01:05:15;;;;;;;1999.90;999.90;;;-0.10;99.90;;;;;;5113179;28;20043;-79
2021/11/10 01:07:42;;;;;;;1999.90;999.90;;;-0.10;99.90;;;;;;5113176;28;20027;-79
2021/11/10 01:10:09;;;;;;;1999.90;999.90;;;-0.10;99.90;;;;;;5112889;28;20028;-79
2021/11/10 01:12:35;;;;;;;1999.90;999.90;;;-0.10;99.90;;;;;;5113026;28;20530;-85
2021/11/10 01:15:02;;;;;;;1999.90;999.90;;;-0.10;99.90;;;;;;5112535;28;20020;-81
2021/11/10 01:17:28;;;;;;;1999.90;999.90;;;-0.10;99.90;;;;;;5112506;28;20019;-81
2021/11/10 01:19:54;;;;;;;1999.90;999.90;;;-0.10;99.90;;;;;;5112456;28;20390;-80
2021/11/10 01:22:19;;;;;;;1999.90;999.90;;;-0.10;99.90;;;;;;5112423;28;20410;-80
2021/11/10 01:24:46;;;;;;;1999.90;999.90;;;-0.10;99.90;;;;;;5112516;28;20019;-79
2021/11/10 01:27:12;;;;;;;1999.90;999.90;;;0.00;99.90;;;;;;5113464;28;20028;-80
2021/11/10 01:29:37;;;;;;;1999.90;999.90;;;-0.10;99.90;;;;;;5112687;28;20027;-80
2021/11/10 01:32:04;;;;;;;1999.90;999.90;;;-0.10;99.90;;;;;;5113938;28;20028;-80
2021/11/10 01:34:30;;;;;;;1999.90;999.90;;;-0.20;99.90;;;;;;5112687;28;20478;-79
2021/11/10 01:36:56;;;;;;;1999.90;999.90;;;-0.20;99.90;;;;;;5112712;28;20024;-80
2021/11/10 01:39:22;;;;;;;1999.90;999.90;;;-0.20;99.90;;;;;;5112837;28;20555;-80
2021/11/10 01:41:52;;;;;;;1999.90;999.90;;;-0.20;99.90;;;;;;5112458;28;20051;-79
2021/11/10 01:44:21;;;;;;;1999.90;999.90;;;-0.30;99.90;;;;;;5112408;28;20024;-80
2021/11/10 01:46:47;;;;;;;1999.90;999.90;;;-0.20;99.90;;;;;;5114721;28;20146;-80
2021/11/10 01:49:13;;;;;;;1999.90;999.90;;;-0.10;99.90;;;;;;5116692;28;20521;-79
2021/11/10 01:51:49;;;;;;;1999.90;999.90;;;-0.10;99.90;;;;;;5116743;28;20019;-81
2021/11/10 01:54:15;;;;;;;1999.90;999.90;;;-0.20;99.90;;;;;;5116573;28;20077;-78
2021/11/10 01:56:41;;;;;;;1999.90;999.90;;;-0.20;99.90;;;;;;5116365;28;20038;-80
2021/11/10 01:59:07;;;;;;;1999.90;999.90;;;-0.20;99.90;;;;;;5116451;28;20409;-79
2021/11/10 02:01:45;;;;;;;1999.90;999.90;;;-0.20;99.90;;;;;;5116233;28;20048;-79
2021/11/10 02:04:11;;;;;;;1999.90;999.90;;;-0.20;99.90;;;;;;5116283;28;20040;-83
2021/11/10 02:06:38;;;;;;;1999.90;999.90;;;-0.20;99.90;;;;;;5116378;28;20034;-81
2021/11/10 02:09:05;;;;;;;1999.90;999.90;;;-0.30;99.90;;;;;;5116444;28;20035;-80
2021/11/10 02:11:32;;;;;;;1999.90;999.90;;;-0.30;99.90;;;;;;5115980;28;20395;-81
2021/11/10 02:13:59;;;;;;;1999.90;999.90;;;-0.30;99.90;;;;;;5116349;28;20031;-78
2021/11/10 02:16:25;;;;;;;1999.90;999.90;;;-0.30;99.90;;;;;;5115920;28;20024;-79
2021/11/10 02:18:52;;;;;;;1999.90;999.90;;;-0.30;99.90;;;;;;5116254;28;20382;-80
2021/11/10 02:21:18;;;;;;;1999.90;999.90;;;-0.30;99.90;;;;;;5116140;28;20020;-80
2021/11/10 02:23:44;;;;;;;1999.90;999.90;;;-0.30;99.90;;;;;;5115990;28;20053;-82
2021/11/10 02:26:28;;;;;;;1999.90;999.90;;;-0.40;99.90;;;;;;5116020;28;20032;-82
2021/11/10 02:28:54;;;;;;;1999.90;999.90;;;-0.40;99.90;;;;;;5116085;28;20474;-79
2021/11/10 02:31:19;;;;;;;1999.90;999.90;;;-0.30;99.90;;;;;;5116069;28;20028;-80
2021/11/10 02:33:45;;;;;;;1999.90;999.90;;;-0.30;99.90;;;;;;5115833;28;20023;-80
2021/11/10 02:36:12;;;;;;;1999.90;999.90;;;-0.30;99.90;;;;;;5115902;28;20023;-79
2021/11/10 02:38:39;;;;;;;1999.90;999.90;;;-0.40;99.90;;;;;;5123586;28;20027;-82
2021/11/10 02:41:04;;;;;;;1999.90;999.90;;;-0.30;99.90;;;;;;5125431;28;20173;-82
2021/11/10 02:43:30;;;;;;;1999.90;999.90;;;-0.40;99.90;;;;;;5116089;28;20122;-81
2021/11/10 02:45:57;;;;;;;1999.90;999.90;;;-0.40;99.90;;;;;;5115533;28;20031;-80
2021/11/10 02:48:23;;;;;;;1999.90;999.90;;;-0.40;99.90;;;;;;5116670;27;20031;-80
2021/11/10 02:50:50;;;;;;;1999.90;999.90;;;-0.30;99.90;;;;;;5116535;28;20020;-80
2021/11/10 02:53:16;;;;;;;1999.90;999.90;;;-0.20;99.90;;;;;;5115523;28;20080;-79
2021/11/10 02:55:42;;;;;;;1999.90;999.90;;;-0.30;99.90;;;;;;5116609;28;20023;-82
2021/11/10 02:58:09;;;;;;;1999.90;999.90;;;-0.30;99.90;;;;;;5113530;28;20032;-79
2021/11/10 03:00:35;;;;;;;1999.90;999.90;;;-0.40;99.90;;;;;;5115082;28;20101;-79
2021/11/10 03:03:04;;;;;;;1999.90;999.90;;;-0.40;99.90;;;;;;5116450;28;20043;-80
2021/11/10 03:05:30;;;;;;;1999.90;999.90;;;-0.40;99.90;;;;;;5115280;28;20114;-80
2021/11/10 03:07:56;;;;;;;1999.90;999.90;;;-0.40;99.90;;;;;;5116426;28;20062;-80
2021/11/10 03:10:22;;;;;;;1999.90;999.90;;;-0.40;99.90;;;;;;5115279;28;20114;-80
2021/11/10 03:12:48;;;;;;;1999.90;999.90;;;-0.50;99.90;;;;;;5116539;28;20059;-80
2021/11/10 03:15:14;;;;;;;1999.90;999.90;;;-0.50;99.90;;;;;;5115062;28;20107;-80
2021/11/10 03:17:40;;;;;;;1999.90;999.90;;;-0.50;99.90;;;;;;5115242;28;20034;-79
2021/11/10 03:20:07;;;;;;;1999.90;999.90;;;-0.50;99.90;;;;;;5116216;27;20045;-81
2021/11/10 03:22:33;;;;;;;1999.90;999.90;;;-0.50;99.90;;;;;;5114876;28;20118;-79
2021/11/10 03:25:00;;;;;;;1999.90;999.90;;;-0.50;99.90;;;;;;5115318;28;20379;-79
2021/11/10 03:27:26;;;;;;;1999.90;999.90;;;-0.60;99.90;;;;;;5115118;28;20487;-80
2021/11/10 03:29:52;;;;;;;1999.90;999.90;;;-0.50;99.90;;;;;;5116103;28;20100;-80
2021/11/10 03:32:20;;;;;;;1999.90;999.90;;;-0.50;99.90;;;;;;5114681;28;20024;-79
2021/11/10 03:34:46;;;;;;;1999.90;999.90;;;-0.50;99.90;;;;;;5114669;28;20018;-80
2021/11/10 03:37:14;;;;;;;1999.90;999.90;;;-0.40;99.90;;;;;;5115975;28;20025;-81
2021/11/10 03:39:40;;;;;;;1999.90;999.90;;;-0.50;99.90;;;;;;5115990;28;20412;-80
2021/11/10 03:42:06;;;;;;;1999.90;999.90;;;-0.50;99.90;;;;;;5114344;28;20032;-79
2021/11/10 03:44:31;;;;;;;1999.90;999.90;;;-0.50;99.90;;;;;;5114352;28;20047;-82
2021/11/10 03:46:57;;;;;;;1999.90;999.90;;;-0.50;99.90;;;;;;5114550;28;20409;-79
2021/11/10 03:49:25;;;;;;;1999.90;999.90;;;-0.40;99.90;;;;;;5115670;28;20073;-81
2021/11/10 03:51:52;;;;;;;1999.90;999.90;;;-0.50;99.90;;;;;;5114061;28;20042;-81
2021/11/10 03:54:18;;;;;;;1999.90;999.90;;;-0.60;99.90;;;;;;5114647;28;20028;-80
2021/11/10 03:56:45;;;;;;;1999.90;999.90;;;-0.60;99.90;;;;;;5114100;28;20046;-80
2021/11/10 03:59:11;;;;;;;1999.90;999.90;;;-0.60;99.90;;;;;;5115423;28;20065;-79
2021/11/10 04:01:39;;;;;;;1999.90;999.90;;;-0.50;99.90;;;;;;5113886;28;20037;-81
2021/11/10 04:04:05;;;;;;;1999.90;999.90;;;-0.70;99.90;;;;;;5113801;28;20038;-80
2021/11/10 04:06:31;;;;;;;1999.90;999.90;;;-0.70;99.90;;;;;;5115480;28;20028;-80
2021/11/10 04:08:58;;;;;;;1999.90;999.90;;;-0.70;99.90;;;;;;5113699;28;20114;-79
2021/11/10 04:11:23;;;;;;;1999.90;999.90;;;-0.70;99.90;;;;;;5114149;28;20117;-82
2021/11/10 04:13:50;;;;;;;1999.90;999.90;;;-0.80;99.90;;;;;;5114133;28;20019;-80
2021/11/10 04:16:20;;;;;;;1999.90;999.90;;;-0.80;99.90;;;;;;5114065;28;20023;-81
2021/11/10 04:18:49;;;;;;;1999.90;999.90;;;-0.80;99.90;;;;;;5114042;28;20027;-80
2021/11/10 04:21:15;;;;;;;1999.90;999.90;;;-0.80;99.90;;;;;;5115018;28;20038;-81
2021/11/10 04:23:40;;;;;;;1999.90;999.90;;;-0.80;99.90;;;;;;5115854;28;20031;-79
2021/11/10 04:26:06;;;;;;;1999.90;999.90;;;-0.80;99.90;;;;;;5119537;28;20045;-81
2021/11/10 04:28:32;;;;;;;1999.90;999.90;;;-0.80;99.90;;;;;;5124942;28;20044;-82
2021/11/10 04:30:58;;;;;;;1999.90;999.90;;;-0.90;99.90;;;;;;5114746;28;20019;-80
2021/11/10 04:33:24;;;;;;;1999.90;999.90;;;-0.90;99.90;;;;;;5113981;28;20474;-80
2021/11/10 04:35:50;;;;;;;1999.90;999.90;;;-0.90;99.90;;;;;;5113311;28;20024;-79
2021/11/10 04:38:16;;;;;;;1999.90;999.90;;;-0.90;99.90;;;;;;5113737;28;20035;-79
2021/11/10 04:40:43;;;;;;;1999.90;999.90;;;-0.80;99.90;;;;;;5113151;28;20030;-80
2021/11/10 04:43:09;;;;;;;1999.90;999.90;;;-0.90;99.90;;;;;;5114674;28;20036;-79
2021/11/10 04:45:36;;;;;;;1999.90;999.90;;;-0.90;99.90;;;;;;5113105;28;20023;-79
2021/11/10 04:48:03;;;;;;;1999.90;999.90;;;-0.90;99.90;;;;;;5113515;28;20489;-79
2021/11/10 04:50:29;;;;;;;1999.90;999.90;;;-0.80;99.90;;;;;;5113233;28;20032;-79
2021/11/10 04:52:54;;;;;;;1999.90;999.90;;;-0.90;99.90;;;;;;5113214;28;20034;-81
2021/11/10 04:55:20;;;;;;;1999.90;999.90;;;-0.80;99.90;;;;;;5114251;28;20433;-79
2021/11/10 04:57:46;;;;;;;1999.90;999.90;;;-1.00;99.90;;;;;;5113295;28;20034;-80
2021/11/10 05:00:13;;;;;;;1999.90;999.90;;;-0.90;99.90;;;;;;5112819;28;20050;-81
2021/11/10 05:02:39;;;;;;;1999.90;999.90;;;-0.90;99.90;;;;;;5114507;28;20466;-80
2021/11/10 05:05:06;;;;;;;1999.90;999.90;;;-0.90;99.90;;;;;;5112701;28;20455;-79
2021/11/10 05:07:32;;;;;;;1999.90;999.90;;;-0.90;99.90;;;;;;5112848;28;20120;-79
2021/11/10 05:09:58;;;;;;;1999.90;999.90;;;-0.80;99.90;;;;;;5113920;28;20073;-80
2021/11/10 05:12:25;;;;;;;1999.90;999.90;;;-0.90;99.90;;;;;;5113032;28;20031;-79
2021/11/10 05:14:52;;;;;;;1999.90;999.90;;;-0.90;99.90;;;;;;5112714;28;20024;-79
2021/11/10 05:17:20;;;;;;;1999.90;999.90;;;-0.80;99.90;;;;;;5112930;28;20019;-79
2021/11/10 05:19:46;;;;;;;1999.90;999.90;;;-1.00;99.90;;;;;;5112822;28;20034;-80
2021/11/10 05:22:13;;;;;;;1999.90;999.90;;;-1.00;99.90;;;;;;5111963;28;20429;-81
2021/11/10 05:24:38;;;;;;;1999.90;999.90;;;-0.90;99.90;;;;;;5112646;28;20063;-80
2021/11/10 05:27:04;;;;;;;1999.90;999.90;;;-0.90;99.90;;;;;;5112659;28;20097;-81
2021/11/10 05:29:30;;;;;;;1999.90;999.90;;;-1.00;99.90;;;;;;5112983;28;20016;-79
2021/11/10 05:31:56;;;;;;;1999.90;999.90;;;-1.00;99.90;;;;;;5113101;28;20034;-78
2021/11/10 05:34:22;;;;;;;1999.90;999.90;;;-1.00;99.90;;;;;;5112872;28;20024;-84
2021/11/10 05:36:47;;;;;;;1999.90;999.90;;;-1.00;99.90;;;;;;5112688;28;20394;-79
2021/11/10 05:39:14;;;;;;;1999.90;999.90;;;-1.00;99.90;;;;;;5112604;28;20381;-79
2021/11/10 05:41:39;;;;;;;1999.90;999.90;;;-1.00;99.90;;;;;;5112547;28;20043;-79
2021/11/10 05:44:05;;;;;;;1999.90;999.90;;;-1.00;99.90;;;;;;5113345;28;20470;-79
2021/11/10 05:46:32;;;;;;;1999.90;999.90;;;-0.90;99.90;;;;;;5113713;28;20015;-79
2021/11/10 05:48:57;;;;;;;1999.90;999.90;;;-1.00;99.90;;;;;;5113384;28;20058;-80
2021/11/10 05:51:23;;;;;;;1999.90;999.90;;;-0.90;99.90;;;;;;5112327;28;20058;-79
2021/11/10 05:53:51;;;;;;;1999.90;999.90;;;-1.00;99.90;;;;;;5112421;28;20352;-83
2021/11/10 05:56:21;;;;;;;1999.90;999.90;;;-1.00;99.90;;;;;;5112716;28;20027;-79
2021/11/10 05:58:48;;;;;;;1999.90;999.90;;;-1.00;99.90;;;;;;5113154;28;20028;-82
2021/11/10 06:01:14;;;;;;;1999.90;999.90;;;-0.20;99.90;;;;;;5113991;28;20055;-80
2021/11/10 06:03:40;;;;;;;1999.90;999.90;;;0.10;99.90;;;;;;5112956;28;20036;-79
2021/11/10 06:06:05;;;;;;;1999.90;999.90;;;-0.10;99.90;;;;;;5114000;28;20478;-80
2021/11/10 06:08:36;;;;;;;1999.90;999.90;;;-0.30;99.90;;;;;;5112355;28;20031;-78
2021/11/10 06:11:03;;;;;;;1999.90;999.90;;;-0.30;99.90;;;;;;5112712;28;20034;-79
2021/11/10 06:13:28;;;;;;;1999.90;999.90;;;-0.40;99.90;;;;;;5118630;28;20028;-82
2021/11/10 06:15:54;;;;;;;1999.90;999.90;;;-0.40;99.90;;;;;;5116900;28;20075;-81
2021/11/10 06:18:20;;;;;;;1999.90;999.90;;;-0.30;99.90;;;;;;5112667;28;20485;-81
2021/11/10 06:20:45;;;;;;;1999.90;999.90;;;-0.50;99.90;;;;;;5114051;28;20478;-82
2021/11/10 06:23:11;;;;;;;1999.90;999.90;;;-0.50;99.90;;;;;;5113908;28;20081;-79
2021/11/10 06:25:37;;;;;;;1999.90;999.90;;;-0.40;99.90;;;;;;5112408;28;20089;-80
2021/11/10 06:28:02;;;;;;;1999.90;999.90;;;-0.60;99.90;;;;;;5112169;28;20024;-81
2021/11/10 06:30:28;;;;;;;1999.90;999.90;;;-0.50;99.90;;;;;;5112442;28;20030;-80
2021/11/10 06:32:54;;;;;;;1999.90;999.90;;;-0.50;99.90;;;;;;5114626;28;20032;-81
2021/11/10 06:35:19;;;;;;;1999.90;999.90;;;-0.50;99.90;;;;;;5115964;28;20074;-81
2021/11/10 06:37:45;;;;;;;1999.90;999.90;;;-0.40;99.90;;;;;;5117114;28;20071;-80
2021/11/10 06:40:13;;;;;;;1999.90;999.90;;;-0.40;99.90;;;;;;5116080;28;20067;-80
2021/11/10 06:42:40;;;;;;;1999.90;999.90;;;-0.30;99.90;;;;;;5116679;28;20039;-82
2021/11/10 06:45:06;;;;;;;1999.90;999.90;;;-0.20;99.90;;;;;;5115682;28;20115;-80
2021/11/10 06:47:33;;;;;;;1999.90;999.90;;;-0.20;99.90;;;;;;5116420;28;20408;-81
2021/11/10 06:49:58;;;;;;;1999.90;999.90;;;-0.20;99.90;;;;;;5115948;28;20027;-80
2021/11/10 06:52:24;;;;;;;1999.90;999.90;;;-0.20;99.90;;;;;;5116953;28;20356;-80
2021/11/10 06:54:50;;;;;;;1999.90;999.90;;;-0.10;99.90;;;;;;5115821;28;20058;-79
2021/11/10 06:57:17;;;;;;;1999.90;999.90;;;0.00;99.90;;;;;;5116856;28;20527;-84
2021/11/10 06:59:43;;;;;;;1999.90;999.90;;;0.00;99.90;;;;;;5115518;28;20124;-81
2021/11/10 07:02:09;;;;;;;1999.90;999.90;;;0.10;99.90;;;;;;5115067;28;20069;-80
2021/11/10 07:04:36;;;;;;;1999.90;999.90;;;0.20;99.90;;;;;;5115072;28;20030;-79
2021/11/10 07:07:02;;;;;;;1999.90;999.90;;;0.30;99.90;;;;;;5117329;28;20401;-80
2021/11/10 07:09:28;;;;;;;1999.90;999.90;;;0.30;99.90;;;;;;5115677;28;20042;-78
2021/11/10 07:11:54;;;;;;;1999.90;999.90;;;0.40;99.90;;;;;;5116363;28;20031;-80
2021/11/10 07:14:19;;;;;;;1999.90;999.90;;;0.50;99.90;;;;;;5115104;28;20033;-78
2021/11/10 07:16:45;;;;;;;1999.90;999.90;;;0.60;99.90;;;;;;5115013;28;20110;-79
2021/11/10 07:19:11;;;;;;;1999.90;999.90;;;0.70;99.90;;;;;;5115068;28;20470;-79
2021/11/10 07:21:37;;;;;;;1999.90;999.90;;;0.70;99.90;;;;;;5114684;28;20023;-81
2021/11/10 07:24:03;;;;;;;1999.90;999.90;;;0.70;99.90;;;;;;5115020;28;20096;-79
2021/11/10 07:26:29;;;;;;;1999.90;999.90;;;0.80;99.90;;;;;;5114895;28;20081;-78
2021/11/10 07:28:55;;;;;;;1999.90;999.90;;;0.80;99.90;;;;;;5114425;27;20027;-80
2021/11/10 07:31:21;;;;;;;1999.90;999.90;;;0.90;99.90;;;;;;5115159;28;20076;-79
2021/11/10 07:33:47;;;;;;;1999.90;999.90;;;0.90;99.90;;;;;;5115566;28;20743;-81
2021/11/10 07:36:12;;;;;;;1999.90;999.90;;;1.00;99.90;;;;;;5117010;28;20051;-80
2021/11/10 07:38:41;;;;;;;1999.90;999.90;;;1.10;99.90;;;;;;5114875;28;20075;-80
2021/11/10 07:41:09;;;;;;;1999.90;999.90;;;1.00;99.90;;;;;;5115027;28;20020;-80
2021/11/10 07:43:34;;;;;;;1999.90;999.90;;;1.20;99.90;;;;;;5114230;28;20039;-80
2021/11/10 07:46:12;;;;;;;1999.90;999.90;;;1.20;99.90;;;;;;5115014;28;20019;-80
2021/11/10 07:48:39;;;;;;;1999.90;999.90;;;1.40;99.90;;;;;;5115369;28;20032;-80
2021/11/10 07:51:05;;;;;;;1999.90;999.90;;;1.40;99.90;;;;;;5114638;28;20469;-80
2021/11/10 07:53:31;;;;;;;1999.90;999.90;;;1.50;99.90;;;;;;5114105;28;20107;-79
2021/11/10 07:55:56;;;;;;;1999.90;999.90;;;1.60;99.90;;;;;;5114196;28;20024;-80
2021/11/10 07:58:22;;;;;;;1999.90;999.90;;;1.70;99.90;;;;;;5115453;28;20020;-80
2021/11/10 08:00:48;;;;;;;1999.90;999.90;;;1.80;99.90;;;;;;5116334;28;20047;-80
2021/11/10 08:03:14;;;;;;;1999.90;999.90;;;2.00;99.90;;;;;;5123937;28;20038;-80
2021/11/10 08:05:39;;;;;;;1999.90;999.90;;;2.00;99.90;;;;;;5119686;28;20028;-79
2021/11/10 08:08:05;;;;;;;1999.90;999.90;;;2.00;99.90;;;;;;5114536;28;20026;-80
2021/11/10 08:10:31;;;;;;;1999.90;999.90;;;2.20;99.90;;;;;;5115556;28;20046;-80
2021/11/10 08:12:57;;;;;;;1999.90;999.90;;;2.20;99.90;;;;;;5113849;28;20024;-79
2021/11/10 08:15:22;;;;;;;1999.90;999.90;;;2.40;99.90;;;;;;5114295;28;20046;-83
2021/11/10 08:17:48;;;;;;;1999.90;999.90;;;2.50;99.90;;;;;;5114458;28;20478;-81
2021/11/10 08:20:18;;;;;;;1999.90;999.90;;;2.60;99.90;;;;;;5114993;28;20012;-83
2021/11/10 08:22:46;;;;;;;1999.90;999.90;;;2.70;99.90;;;;;;5113746;28;20027;-78
2021/11/10 08:25:13;;;;;;;1999.90;999.90;;;2.80;99.90;;;;;;5113911;28;20016;-82
2021/11/10 08:27:40;;;;;;;1999.90;999.90;;;2.90;99.90;;;;;;5114215;27;20077;-81
2021/11/10 08:30:12;;;;;;;1999.90;999.90;;;3.00;99.90;;;;;;5113666;28;20387;-81
2021/11/10 08:32:38;;;;;;;1999.90;999.90;;;3.20;99.90;;;;;;5113410;28;20106;-80
2021/11/10 08:35:05;;;;;;;1999.90;999.90;;;3.30;99.90;;;;;;5113407;28;20059;-81
2021/11/10 08:37:31;;;;;;;1999.90;999.90;;;3.50;99.90;;;;;;5114581;28;20026;-82
2021/11/10 08:39:58;;;;;;;1999.90;999.90;;;3.60;99.90;;;;;;5113497;28;20524;-80
2021/11/10 08:42:24;;;;;;;1999.90;999.90;;;3.70;99.90;;;;;;5113758;28;20028;-81
2021/11/10 08:44:53;;;;;;;1999.90;999.90;;;3.80;99.90;;;;;;5113376;28;20019;-79
2021/11/10 08:47:21;;;;;;;1999.90;999.90;;;3.90;99.90;;;;;;5113791;28;20489;-82
2021/11/10 08:49:48;;;;;;;1999.90;999.90;;;4.00;99.90;;;;;;5113832;28;20050;-81
2021/11/10 08:52:14;;;;;;;1999.90;999.90;;;4.00;99.90;;;;;;5113549;28;20020;-83
2021/11/10 08:54:39;;;;;;;1999.90;999.90;;;4.10;99.90;;;;;;5113360;28;20026;-80
2021/11/10 08:57:05;;;;;;;1999.90;999.90;;;4.20;99.90;;;;;;5112384;28;20030;-80
2021/11/10 08:59:31;;;;;;;1999.90;999.90;;;4.30;99.90;;;;;;5113123;28;20075;-81
2021/11/10 09:01:58;;;;;;;1999.90;999.90;;;4.40;99.90;;;;;;5113280;28;20072;-80
2021/11/10 09:04:24;;;;;;;1999.90;999.90;;;4.50;99.90;;;;;;5113143;28;20398;-82
2021/11/10 09:06:50;;;;;;;1999.90;999.90;;;4.60;99.90;;;;;;5113009;28;20413;-84
2021/11/10 09:09:17;;;;;;;1999.90;999.90;;;4.70;99.90;;;;;;5113165;28;20027;-81
2021/11/10 09:11:45;;;;;;;1999.90;999.90;;;4.80;99.90;;;;;;5113145;28;20031;-80
2021/11/10 09:14:11;;;;;;;1999.90;999.90;;;4.90;99.90;;;;;;5112984;28;20027;-80
2021/11/10 09:16:37;;;;;;;1999.90;999.90;;;5.00;99.90;;;;;;5113213;28;20485;-82
2021/11/10 09:19:03;;;;;;;1999.90;999.90;;;5.10;99.90;;;;;;5113468;28;20033;-82
2021/11/10 09:21:29;;;;;;;1999.90;999.90;;;5.10;99.90;;;;;;5113461;28;20024;-82
2021/11/10 09:23:55;;;;;;;1999.90;999.90;;;5.30;99.90;;;;;;5114151;28;20497;-82
2021/11/10 09:26:21;;;;;;;1999.90;999.90;;;5.40;99.90;;;;;;5113036;28;20052;-81
2021/11/10 09:28:46;;;;;;;1999.90;999.90;;;5.50;99.90;;;;;;5114366;28;20471;-84
2021/11/10 09:31:12;;;;;;;1999.90;999.90;;;5.60;99.90;;;;;;5113503;28;20058;-83
2021/11/10 09:33:43;;;;;;;1999.90;999.90;;;5.80;99.90;;;;;;5113076;28;20027;-82
2021/11/10 09:36:08;;;;;;;1999.90;999.90;;;5.90;99.90;;;;;;5113311;28;20019;-81
2021/11/10 09:38:35;;;;;;;1999.90;999.90;;;6.00;99.90;;;;;;5113349;28;20505;-83
2021/11/10 09:41:03;;;;;;;1999.90;999.90;;;6.20;99.90;;;;;;5113536;28;20499;-85
2021/11/10 09:43:35;;;;;;;1999.90;999.90;;;6.30;99.90;;;;;;5114271;28;20116;-82
2021/11/10 09:46:02;;;;;;;1999.90;999.90;;;6.40;99.90;;;;;;5113158;28;20020;-83
2021/11/10 09:48:28;;;;;;;1999.90;999.90;;;6.50;99.90;;;;;;5115366;28;20031;-85
2021/11/10 09:50:54;;;;;;;1999.90;999.90;;;6.70;99.90;;;;;;5122649;28;20026;-83
2021/11/10 09:53:20;;;;;;;1999.90;999.90;;;6.70;99.90;;;;;;5114082;28;20015;-83
2021/11/10 09:55:46;;;;;;;1999.90;999.90;;;6.90;99.90;;;;;;5113290;28;20032;-84
2021/11/10 09:58:12;;;;;;;1999.90;999.90;;;7.00;99.90;;;;;;5113092;28;20039;-81
2021/11/10 10:00:54;;;;;;;1999.90;999.90;;;7.10;99.90;;;;;;5112581;28;20384;-82
2021/11/10 10:03:21;;;;;;;1999.90;999.90;;;7.20;99.90;;;;;;5112994;28;20031;-80
2021/11/10 10:05:48;;;;;;;1999.90;999.90;;;7.30;99.90;;;;;;5113559;28;20069;-81
2021/11/10 10:08:15;;;;;;;1999.90;999.90;;;7.40;99.90;;;;;;5115487;28;20037;-83
2021/11/10 10:10:42;;;;;;;1999.90;999.90;;;7.50;99.90;;;;;;5116713;28;20068;-83
2021/11/10 10:13:09;;;;;;;1999.90;999.90;;;7.60;99.90;;;;;;5116356;28;20016;-82
2021/11/10 10:15:36;;;;;;;1999.90;999.90;;;7.60;99.90;;;;;;5116481;28;20374;-83
2021/11/10 10:18:15;;;;;;;1999.90;999.90;;;7.70;99.90;;;;;;5116480;28;20115;-84
2021/11/10 10:20:42;;;;;;;1999.90;999.90;;;7.70;99.90;;;;;;5116855;28;20019;-83
2021/11/10 10:23:18;;;;;;;1999.90;999.90;;;7.80;99.90;;;;;;5116607;28;20035;-82
2021/11/10 10:26:15;;;;;;;1999.90;999.90;;;7.80;99.90;;;;;;5116800;28;20375;-81
2021/11/10 10:28:44;;;;;;;1999.90;999.90;;;7.90;99.90;;;;;;5116368;28;20036;-82
2021/11/10 10:31:12;;;;;;;1999.90;999.90;;;7.90;99.90;;;;;;5116572;28;20543;-85
2021/11/10 10:33:41;;;;;;;1999.90;999.90;;;8.00;99.90;;;;;;5116559;28;20085;-82
2021/11/10 10:36:11;;;;;;;1999.90;999.90;;;8.10;99.90;;;;;;5116490;28;20024;-83
2021/11/10 10:38:38;;;;;;;1999.90;999.90;;;8.10;99.90;;;;;;5116314;28;20024;-83
2021/11/10 10:41:07;;;;;;;1999.90;999.90;;;8.20;99.90;;;;;;5116393;28;20066;-84
2021/11/10 10:43:44;;;;;;;1999.90;999.90;;;8.20;99.90;;;;;;5115887;28;20096;-82
2021/11/10 10:46:10;;;;;;;1999.90;999.90;;;8.20;99.90;;;;;;5116223;28;20064;-82
2021/11/10 10:48:38;;;;;;;1999.90;999.90;;;8.20;99.90;;;;;;5115897;28;20051;-82
2021/11/10 10:51:26;;;;;;;1999.90;999.90;;;8.20;99.90;;;;;;5115968;28;20103;-82
2021/11/10 10:53:52;;;;;;;1999.90;999.90;;;8.30;99.90;;;;;;5116187;28;20398;-84
2021/11/10 10:56:30;;;;;;;1999.90;999.90;;;8.20;99.90;;;;;;5115772;28;20023;-82
2021/11/10 10:58:59;;;;;;;1999.90;999.90;;;8.30;99.90;;;;;;5114833;28;20467;-84
2021/11/10 11:01:26;;;;;;;1999.90;999.90;;;8.40;99.90;;;;;;5114868;28;20055;-81
2021/11/10 11:04:15;;;;;;;1999.90;999.90;;;8.40;99.90;;;;;;5114733;28;20031;-81
2021/11/10 11:06:51;;;;;;;1999.90;999.90;;;8.40;99.90;;;;;;5114560;28;20146;-83
2021/11/10 11:09:27;;;;;;;1999.90;999.90;;;8.50;99.90;;;;;;5114709;28;20113;-83
2021/11/10 11:12:02;;;;;;;1999.90;999.90;;;8.60;99.90;;;;;;5114763;28;20085;-83
2021/11/10 11:14:39;;;;;;;1999.90;999.90;;;8.60;99.90;;;;;;5114722;28;20114;-84
2021/11/10 11:17:28;;;;;;;1999.90;999.90;;;8.70;99.90;;;;;;5115126;28;20091;-82
2021/11/10 11:20:05;;;;;;;1999.90;999.90;;;8.80;99.90;;;;;;5114597;28;20043;-84
2021/11/10 11:22:38;;;;;;;1999.90;999.90;;;8.70;99.90;;;;;;5115594;28;20028;-83
2021/11/10 11:25:18;;;;;;;1999.90;999.90;;;8.80;99.90;;;;;;5115479;28;20875;-82
2021/11/10 11:27:57;;;;;;;1999.90;999.90;;;8.80;99.90;;;;;;5115411;28;20067;-82
2021/11/10 11:30:24;;;;;;;1999.90;999.90;;;8.80;99.90;;;;;;5115178;28;20047;-83
2021/11/10 11:32:55;;;;;;;1999.90;999.90;;;8.80;99.90;;;;;;5115760;28;20023;-81
2021/11/10 11:35:33;;;;;;;1999.90;999.90;;;8.80;99.90;;;;;;5115599;28;20024;-86
2021/11/10 11:38:07;;;;;;;1999.90;999.90;;;8.70;99.90;;;;;;5119989;28;20084;-85
2021/11/10 11:40:44;;;;;;;1999.90;999.90;;;8.70;99.90;;;;;;5120591;28;20038;-85
2021/11/10 11:43:14;;;;;;;1999.90;999.90;;;8.90;99.90;;;;;;5115506;28;20036;-84
2021/11/10 11:45:42;;;;;;;1999.90;999.90;;;9.00;99.90;;;;;;5115518;28;20023;-81
2021/11/10 11:48:08;;;;;;;1999.90;999.90;;;9.00;99.90;;;;;;5114949;28;20031;-81
2021/11/10 11:50:35;;;;;;;1999.90;999.90;;;9.10;99.90;;;;;;5114910;28;20020;-85
2021/11/10 11:53:02;;;;;;;1999.90;999.90;;;9.10;99.90;;;;;;5115105;28;20089;-84
2021/11/10 11:55:33;;;;;;;1999.90;999.90;;;9.20;99.90;;;;;;5114766;28;20028;-84
2021/11/10 11:58:07;;;;;;;1999.90;999.90;;;9.30;99.90;;;;;;5115004;28;20150;-83
2021/11/10 12:00:42;;;;;;;1999.90;999.90;;;9.30;99.90;;;;;;5114889;28;20078;-83
2021/11/10 12:03:26;;;;;;;1999.90;999.90;;;9.50;99.90;;;;;;5114545;28;20375;-82
2021/11/10 12:06:04;;;;;;;1999.90;999.90;;;9.60;99.90;;;;;;5114821;28;20174;-82